RYR3255 LICT-EPLB

Flight info

Callsign RYR3255
Flight time 2h 29m
Altitude 36000
Route GIANO DCT SOR DCT XOLTA/N0434F370 DCT ELTIB DCT VEBAL DCT BODZA DCT SUPAK L999 DOGIG DCT GAVDU
Aircraft B738/M-SDE2E3FGHIRWXY/LB1

Departure

Time 2026-04-07 13:40
Airport Vincenzo Florio Airport Trapani-Birgi (LICT)

Arrival

Time 2026-04-07 16:09
Airport Lublin Airport (EPLB)
Time Latitude Longitude Altitude Speed Heading
2026-04-07 13:18 37.90285 12.49604 30 ft 0 kts 261°
2026-04-07 13:34 37.90290 12.49630 30 ft 4 kts 244°
2026-04-07 13:34 37.90305 12.49653 28 ft 4 kts 196°
2026-04-07 13:34 37.90325 12.49650 29 ft 3 kts 129°
2026-04-07 13:34 37.90329 12.49643 29 ft 0 kts 128°
2026-04-07 13:37 37.90324 12.49652 29 ft 4 kts 127°
2026-04-07 13:38 37.90301 12.49705 30 ft 9 kts 95°
2026-04-07 13:38 37.90353 12.49735 30 ft 10 kts 328°
2026-04-07 13:38 37.90405 12.49661 33 ft 8 kts 333°
2026-04-07 13:38 37.90462 12.49692 33 ft 11 kts 37°
2026-04-07 13:39 37.90534 12.49753 35 ft 10 kts
2026-04-07 13:39 37.90594 12.49685 34 ft 16 kts 307°
2026-04-07 13:39 37.90738 12.49449 33 ft 66 kts 308°
2026-04-07 13:39 37.91163 12.48761 28 ft 130 kts 307°
2026-04-07 13:40 37.91814 12.47694 204 ft 166 kts 309°
2026-04-07 13:40 37.92548 12.46579 1041 ft 163 kts 316°
2026-04-07 13:40 37.93603 12.45960 1594 ft 173 kts 356°
2026-04-07 13:40 37.94830 12.45888 2064 ft 196 kts 358°
2026-04-07 13:41 37.96299 12.45875 2261 ft 218 kts 359°
2026-04-07 13:41 37.97875 12.45863 2537 ft 234 kts 359°
2026-04-07 13:41 37.99518 12.45876 3032 ft 238 kts 360°
2026-04-07 13:41 38.01172 12.45864 3650 ft 236 kts 359°
2026-04-07 13:42 38.02838 12.45838 4111 ft 243 kts 359°
2026-04-07 13:42 38.04531 12.45811 4721 ft 244 kts 359°
2026-04-07 13:42 38.06221 12.45784 5307 ft 247 kts 359°
2026-04-07 13:42 38.07962 12.45759 5753 ft 261 kts 359°
2026-04-07 13:43 38.09847 12.45732 6303 ft 271 kts 359°
2026-04-07 13:43 38.11727 12.45706 6998 ft 275 kts 359°
2026-04-07 13:43 38.13668 12.45681 7799 ft 275 kts 359°
2026-04-07 13:43 38.15591 12.45657 8522 ft 278 kts 359°
2026-04-07 13:44 38.17510 12.45633 9251 ft 281 kts 359°
2026-04-07 13:44 38.19467 12.45609 10024 ft 282 kts 359°
2026-04-07 13:44 38.21443 12.45585 10636 ft 289 kts 359°
2026-04-07 13:44 38.23533 12.45559 10799 ft 312 kts 359°
2026-04-07 13:45 38.25770 12.45532 11028 ft 330 kts 359°
2026-04-07 13:45 38.28101 12.45504 11520 ft 339 kts 359°
2026-04-07 13:45 38.30470 12.45476 12178 ft 342 kts 359°
2026-04-07 13:45 38.32858 12.45447 12869 ft 345 kts 359°
2026-04-07 13:46 38.35270 12.45419 13545 ft 349 kts 358°
2026-04-07 13:46 38.37716 12.45389 14218 ft 354 kts 358°
2026-04-07 13:46 38.40191 12.45360 14858 ft 357 kts 358°
2026-04-07 13:46 38.42685 12.45330 15527 ft 361 kts 358°
2026-04-07 13:47 38.45208 12.45300 16186 ft 364 kts 358°
2026-04-07 13:47 38.47756 12.45270 16843 ft 368 kts 359°
2026-04-07 13:47 38.50329 12.45239 17487 ft 372 kts 359°
2026-04-07 13:47 38.52934 12.45208 18132 ft 376 kts 359°
2026-04-07 13:48 38.55564 12.45176 18747 ft 380 kts 359°
2026-04-07 13:48 38.58218 12.45145 19317 ft 383 kts 359°
2026-04-07 13:48 38.60887 12.45113 19891 ft 386 kts 359°
2026-04-07 13:48 38.63583 12.45081 20439 ft 389 kts 359°
2026-04-07 13:49 38.66302 12.45048 20988 ft 392 kts 358°
2026-04-07 13:49 38.69041 12.45015 21536 ft 395 kts 358°
2026-04-07 13:49 38.71798 12.44982 22065 ft 399 kts 358°
2026-04-07 13:49 38.74588 12.44948 22584 ft 402 kts 358°
2026-04-07 13:50 38.77397 12.44914 23103 ft 405 kts 358°
2026-04-07 13:50 38.80228 12.44880 23606 ft 408 kts 358°
2026-04-07 13:50 38.83082 12.44852 24062 ft 412 kts
2026-04-07 13:50 38.85926 12.45349 24473 ft 416 kts 15°
2026-04-07 13:51 38.88617 12.46744 24927 ft 419 kts 28°
2026-04-07 13:51 38.91003 12.48916 25355 ft 422 kts 38°
2026-04-07 13:51 38.93271 12.51337 25760 ft 425 kts 39°
2026-04-07 13:51 38.95528 12.53808 26140 ft 428 kts 39°
2026-04-07 13:52 38.97799 12.56306 26533 ft 431 kts 39°
2026-04-07 13:52 39.00085 12.58806 26945 ft 432 kts 39°
2026-04-07 13:52 39.02381 12.61302 27340 ft 434 kts 39°
2026-04-07 13:52 39.04705 12.63814 27730 ft 436 kts 39°
2026-04-07 13:53 39.07041 12.66331 28100 ft 439 kts 39°
2026-04-07 13:53 39.09383 12.68850 28469 ft 440 kts 39°
2026-04-07 13:53 39.11742 12.71385 28825 ft 443 kts 39°
2026-04-07 13:53 39.14081 12.73900 29166 ft 445 kts 39°
2026-04-07 13:54 39.16492 12.76495 29505 ft 447 kts 39°
2026-04-07 13:54 39.18852 12.79038 29843 ft 449 kts 39°
2026-04-07 13:54 39.21249 12.81623 30224 ft 449 kts 39°
2026-04-07 13:54 39.23638 12.84203 30664 ft 447 kts 39°
2026-04-07 13:55 39.26014 12.86771 31098 ft 445 kts 39°
2026-04-07 13:55 39.28388 12.89339 31437 ft 445 kts 39°
2026-04-07 13:55 39.30757 12.91905 31753 ft 445 kts 39°
2026-04-07 13:55 39.33129 12.94476 32107 ft 444 kts 39°
2026-04-07 13:56 39.35495 12.97043 32479 ft 443 kts 38°
2026-04-07 13:56 39.37851 12.99601 32835 ft 443 kts 38°
2026-04-07 13:56 39.40206 13.02160 33158 ft 442 kts 38°
2026-04-07 13:56 39.42562 13.04722 33488 ft 442 kts 38°
2026-04-07 13:57 39.44906 13.07276 33835 ft 441 kts 38°
2026-04-07 13:57 39.47251 13.09831 34162 ft 440 kts 38°
2026-04-07 13:57 39.49589 13.12381 34447 ft 440 kts 38°
2026-04-07 13:57 39.51930 13.14936 34709 ft 439 kts 38°
2026-04-07 13:58 39.54260 13.17483 34972 ft 439 kts 38°
2026-04-07 13:58 39.56595 13.20036 35224 ft 438 kts 38°
2026-04-07 13:58 39.58919 13.22581 35485 ft 438 kts 38°
2026-04-07 13:58 39.61242 13.25126 35748 ft 437 kts 38°
2026-04-07 13:59 39.63560 13.27669 35991 ft 437 kts 38°
2026-04-07 13:59 39.65881 13.30217 36216 ft 436 kts 38°
2026-04-07 13:59 39.70529 13.35325 36288 ft 438 kts 38°
2026-04-07 14:00 39.75160 13.40425 36285 ft 435 kts 38°
2026-04-07 14:00 39.79758 13.45499 36282 ft 432 kts 38°
2026-04-07 14:01 39.84327 13.50549 36287 ft 430 kts 38°
2026-04-07 14:01 39.88879 13.55589 36291 ft 429 kts 38°
2026-04-07 14:02 39.93421 13.60626 36280 ft 429 kts 38°
2026-04-07 14:02 39.97964 13.65675 36282 ft 429 kts 38°
2026-04-07 14:03 40.02507 13.70732 36277 ft 430 kts 38°
2026-04-07 14:03 40.07070 13.75821 36286 ft 432 kts 38°
2026-04-07 14:04 40.11639 13.80926 36284 ft 433 kts 38°
2026-04-07 14:04 40.16222 13.86056 36281 ft 434 kts 39°
2026-04-07 14:05 40.20781 13.91169 36281 ft 435 kts 39°
2026-04-07 14:05 40.25371 13.96327 36275 ft 435 kts 39°
2026-04-07 14:06 40.29963 14.01496 36269 ft 435 kts 39°
2026-04-07 14:06 40.34545 14.06663 36278 ft 434 kts 39°
2026-04-07 14:07 40.39118 14.11830 36271 ft 434 kts 39°
2026-04-07 14:07 40.43681 14.16996 36282 ft 433 kts 39°
2026-04-07 14:08 40.48232 14.22158 36281 ft 432 kts 39°
2026-04-07 14:08 40.52773 14.27318 36278 ft 431 kts 39°
2026-04-07 14:09 40.57313 14.32449 36281 ft 430 kts 36°
2026-04-07 14:09 40.62440 14.36413 36291 ft 427 kts 25°
2026-04-07 14:10 40.67807 14.39786 36290 ft 427 kts 24°
2026-04-07 14:10 40.73166 14.43161 36286 ft 427 kts 25°
2026-04-07 14:11 40.78505 14.46576 36290 ft 427 kts 25°
2026-04-07 14:11 40.83840 14.50020 36286 ft 427 kts 25°
2026-04-07 14:12 40.89169 14.53474 36284 ft 427 kts 26°
2026-04-07 14:12 40.94500 14.56936 36276 ft 427 kts 26°
2026-04-07 14:13 40.99838 14.60409 36271 ft 427 kts 26°
2026-04-07 14:13 41.05174 14.63885 36257 ft 428 kts 26°
2026-04-07 14:14 41.10475 14.67345 36244 ft 428 kts 26°
2026-04-07 14:14 41.15856 14.70864 36235 ft 428 kts 26°
2026-04-07 14:15 41.21201 14.74366 36234 ft 428 kts 26°
2026-04-07 14:15 41.26501 14.77843 36227 ft 428 kts 26°
2026-04-07 14:16 41.31835 14.81351 36227 ft 427 kts 26°
2026-04-07 14:16 41.37153 14.84854 36213 ft 427 kts 26°
2026-04-07 14:17 41.42465 14.88360 36214 ft 426 kts 26°
2026-04-07 14:17 41.47769 14.91866 36213 ft 425 kts 26°
2026-04-07 14:18 41.53055 14.95367 36198 ft 424 kts 26°
2026-04-07 14:18 41.58340 14.98874 36195 ft 423 kts 26°
2026-04-07 14:19 41.63608 15.02377 36193 ft 423 kts 26°
2026-04-07 14:19 41.68869 15.05880 36190 ft 422 kts 26°
2026-04-07 14:20 41.73234 15.08793 36188 ft 422 kts 26°
2026-04-07 14:20 41.78485 15.12301 36185 ft 422 kts 26°
2026-04-07 14:21 41.83733 15.15815 36188 ft 421 kts 26°
2026-04-07 14:21 41.88975 15.19331 36186 ft 422 kts 26°
2026-04-07 14:22 41.94226 15.22859 36188 ft 422 kts 26°
2026-04-07 14:22 41.99467 15.26388 36189 ft 421 kts 26°
2026-04-07 14:23 42.04712 15.29925 36186 ft 421 kts 26°
2026-04-07 14:23 42.09948 15.33464 36189 ft 421 kts 26°
2026-04-07 14:24 42.15181 15.37006 36183 ft 421 kts 26°
2026-04-07 14:24 42.20410 15.40552 36186 ft 420 kts 26°
2026-04-07 14:25 42.25627 15.44098 36180 ft 420 kts 26°
2026-04-07 14:25 42.30843 15.47648 36187 ft 420 kts 26°
2026-04-07 14:26 42.36058 15.51205 36185 ft 419 kts 26°
2026-04-07 14:26 42.41262 15.54761 36189 ft 419 kts 26°
2026-04-07 14:27 42.46430 15.58300 36190 ft 419 kts 26°
2026-04-07 14:27 42.51665 15.61891 36190 ft 419 kts 26°
2026-04-07 14:28 42.56827 15.65438 36185 ft 419 kts 26°
2026-04-07 14:28 42.62027 15.69019 36190 ft 419 kts 26°
2026-04-07 14:29 42.67225 15.72604 36189 ft 419 kts 26°
2026-04-07 14:29 42.72433 15.76169 36181 ft 419 kts 25°
2026-04-07 14:30 42.77698 15.79588 36185 ft 419 kts 25°
2026-04-07 14:30 42.82975 15.82985 36186 ft 419 kts 25°
2026-04-07 14:31 42.88249 15.86404 36182 ft 420 kts 25°
2026-04-07 14:31 42.93514 15.89837 36183 ft 420 kts 25°
2026-04-07 14:32 42.98745 15.93259 36184 ft 419 kts 25°
2026-04-07 14:32 43.04003 15.96705 36186 ft 419 kts 25°
2026-04-07 14:33 43.09259 16.00157 36181 ft 419 kts 25°
2026-04-07 14:33 43.14513 16.03614 36179 ft 419 kts 25°
2026-04-07 14:34 43.19752 16.07068 36181 ft 418 kts 25°
2026-04-07 14:34 43.24994 16.10530 36178 ft 418 kts 25°
2026-04-07 14:35 43.30220 16.13988 36180 ft 417 kts 25°
2026-04-07 14:35 43.35444 16.17452 36181 ft 416 kts 25°
2026-04-07 14:36 43.40657 16.20915 36164 ft 416 kts 25°
2026-04-07 14:36 43.45869 16.24383 36157 ft 416 kts 25°
2026-04-07 14:37 43.51070 16.27852 36168 ft 415 kts 24°
2026-04-07 14:37 43.56270 16.31326 36157 ft 415 kts 24°
2026-04-07 14:38 43.61467 16.34805 36164 ft 415 kts 24°
2026-04-07 14:38 43.66658 16.38286 36162 ft 415 kts 24°
2026-04-07 14:39 43.74390 16.43484 36162 ft 414 kts 24°
2026-04-07 14:40 43.79561 16.46970 36154 ft 412 kts 24°
2026-04-07 14:40 43.84713 16.50448 36157 ft 412 kts 24°
2026-04-07 14:41 43.89860 16.53931 36158 ft 411 kts 24°
2026-04-07 14:41 43.94995 16.57412 36149 ft 410 kts 24°
2026-04-07 14:42 44.00119 16.60892 36153 ft 410 kts 24°
2026-04-07 14:42 44.05243 16.64379 36148 ft 410 kts 24°
2026-04-07 14:43 44.10356 16.67865 36146 ft 409 kts 24°
2026-04-07 14:43 44.15465 16.71356 36155 ft 409 kts 24°
2026-04-07 14:44 44.20570 16.74850 36143 ft 409 kts 24°
2026-04-07 14:44 44.25670 16.78348 36134 ft 408 kts 24°
2026-04-07 14:45 44.30831 16.81643 36131 ft 406 kts 16°
2026-04-07 14:45 44.36317 16.83364 36139 ft 404 kts
2026-04-07 14:46 44.41843 16.84830 36139 ft 404 kts
2026-04-07 14:46 44.47368 16.86323 36138 ft 405 kts
2026-04-07 14:47 44.52896 16.87848 36145 ft 405 kts
2026-04-07 14:47 44.58433 16.89391 36125 ft 405 kts
2026-04-07 14:48 44.63959 16.90937 36141 ft 405 kts
2026-04-07 14:48 44.69486 16.92486 36137 ft 405 kts
2026-04-07 14:49 44.74976 16.94028 36147 ft 405 kts
2026-04-07 14:49 44.80505 16.95583 36134 ft 405 kts
2026-04-07 14:50 44.86030 16.97140 36154 ft 405 kts
2026-04-07 14:50 44.91551 16.98700 36152 ft 404 kts
2026-04-07 14:51 44.97070 17.00261 36168 ft 406 kts
2026-04-07 14:51 45.02637 17.01839 36508 ft 409 kts
2026-04-07 14:51 45.05417 17.02629 36841 ft 406 kts
2026-04-07 14:52 45.08178 17.03414 37128 ft 405 kts
2026-04-07 14:52 45.13744 17.04997 37145 ft 409 kts
2026-04-07 14:53 45.19291 17.06581 37136 ft 404 kts
2026-04-07 14:53 45.24746 17.08141 37137 ft 401 kts
2026-04-07 14:54 45.30162 17.09691 37139 ft 399 kts
2026-04-07 14:54 45.35593 17.11249 37142 ft 398 kts
2026-04-07 14:55 45.41012 17.12806 37144 ft 398 kts
2026-04-07 14:55 45.46451 17.14372 37150 ft 399 kts
2026-04-07 14:56 45.51919 17.15949 37146 ft 402 kts
2026-04-07 14:56 45.57404 17.17536 37152 ft 404 kts
2026-04-07 14:57 45.62924 17.19135 37151 ft 406 kts
2026-04-07 14:57 45.68459 17.20742 37151 ft 407 kts
2026-04-07 14:58 45.74009 17.22357 37143 ft 407 kts
2026-04-07 14:58 45.79559 17.23976 37148 ft 406 kts
2026-04-07 14:59 45.85094 17.25593 37134 ft 406 kts
2026-04-07 14:59 45.90615 17.27209 37140 ft 404 kts
2026-04-07 15:00 45.96115 17.28822 37140 ft 403 kts
2026-04-07 15:00 46.01479 17.31232 37142 ft 408 kts 21°
2026-04-07 15:01 46.06567 17.34826 37147 ft 407 kts 22°
2026-04-07 15:01 46.11631 17.38446 37142 ft 406 kts 22°
2026-04-07 15:02 46.16664 17.42017 37150 ft 406 kts 21°
2026-04-07 15:02 46.21769 17.45625 37146 ft 405 kts 21°
2026-04-07 15:03 46.26800 17.49180 37154 ft 405 kts 21°
2026-04-07 15:03 46.31866 17.52766 37161 ft 406 kts 21°
2026-04-07 15:04 46.36939 17.56365 37156 ft 407 kts 21°
2026-04-07 15:04 46.42022 17.59980 37162 ft 407 kts 21°
2026-04-07 15:05 46.47109 17.63604 37159 ft 408 kts 21°
2026-04-07 15:05 46.52203 17.67242 37159 ft 408 kts 21°
2026-04-07 15:06 46.57291 17.70882 37166 ft 408 kts 21°
2026-04-07 15:06 46.62372 17.74526 37162 ft 407 kts 21°
2026-04-07 15:07 46.67451 17.78176 37160 ft 407 kts 21°
2026-04-07 15:07 46.72521 17.81827 37158 ft 405 kts 21°
2026-04-07 15:08 46.77565 17.85467 37162 ft 404 kts 21°
2026-04-07 15:08 46.82595 17.89105 37165 ft 403 kts 21°
2026-04-07 15:09 46.87607 17.92737 37167 ft 401 kts 21°
2026-04-07 15:09 46.92596 17.96360 37159 ft 399 kts 21°
2026-04-07 15:10 46.97548 17.99964 37158 ft 397 kts 21°
2026-04-07 15:10 47.02446 18.03535 37155 ft 395 kts 20°
2026-04-07 15:11 47.07346 18.07115 37167 ft 393 kts 20°
2026-04-07 15:11 47.12239 18.10697 37160 ft 393 kts 20°
2026-04-07 15:12 47.16329 18.13696 37162 ft 393 kts 20°
2026-04-07 15:12 47.21192 18.17270 37161 ft 394 kts 20°
2026-04-07 15:13 47.26097 18.20881 37161 ft 395 kts 20°
2026-04-07 15:13 47.31035 18.24525 37162 ft 398 kts 20°
2026-04-07 15:14 47.36001 18.28198 37164 ft 401 kts 20°
2026-04-07 15:14 47.40998 18.31902 37169 ft 403 kts 20°
2026-04-07 15:15 47.46027 18.35638 37156 ft 406 kts 20°
2026-04-07 15:15 47.51087 18.39406 37153 ft 408 kts 20°
2026-04-07 15:16 47.56153 18.43186 37147 ft 408 kts 20°
2026-04-07 15:16 47.61210 18.46999 37139 ft 407 kts 21°
2026-04-07 15:17 47.66241 18.50817 37143 ft 405 kts 21°
2026-04-07 15:17 47.71246 18.54623 37141 ft 403 kts 20°
2026-04-07 15:18 47.76232 18.58419 37143 ft 402 kts 20°
2026-04-07 15:18 47.81190 18.62202 37137 ft 400 kts 20°
2026-04-07 15:19 47.86124 18.65973 37136 ft 398 kts 20°
2026-04-07 15:19 47.91040 18.69738 37137 ft 397 kts 20°
2026-04-07 15:20 47.95948 18.73505 37135 ft 396 kts 20°
2026-04-07 15:20 48.00837 18.77266 37135 ft 395 kts 20°
2026-04-07 15:21 48.05719 18.81030 37129 ft 394 kts 20°
2026-04-07 15:21 48.10591 18.84794 37134 ft 394 kts 20°
2026-04-07 15:22 48.15468 18.88569 37128 ft 395 kts 20°
2026-04-07 15:22 48.20357 18.92361 37124 ft 396 kts 20°
2026-04-07 15:23 48.25216 18.96140 37129 ft 396 kts 20°
2026-04-07 15:23 48.30109 18.99953 37116 ft 397 kts 20°
2026-04-07 15:24 48.35012 19.03783 37107 ft 397 kts 20°
2026-04-07 15:24 48.39906 19.07615 37109 ft 396 kts 20°
2026-04-07 15:25 48.44797 19.11452 37110 ft 396 kts 20°
2026-04-07 15:25 48.49693 19.15300 37105 ft 397 kts 20°
2026-04-07 15:26 48.54582 19.19152 37098 ft 397 kts 20°
2026-04-07 15:26 48.59479 19.23020 37092 ft 397 kts 20°
2026-04-07 15:27 48.64365 19.26886 37091 ft 396 kts 19°
2026-04-07 15:27 48.69243 19.30755 37100 ft 396 kts 19°
2026-04-07 15:28 48.74114 19.34628 37093 ft 395 kts 19°
2026-04-07 15:28 48.78976 19.38500 37113 ft 395 kts 19°
2026-04-07 15:29 48.83836 19.42380 37094 ft 394 kts 19°
2026-04-07 15:29 48.88681 19.46259 37098 ft 393 kts 19°
2026-04-07 15:30 48.93468 19.50098 37048 ft 390 kts 18°
2026-04-07 15:30 48.98243 19.53936 37088 ft 389 kts 19°
2026-04-07 15:31 49.03030 19.57786 37104 ft 390 kts 19°
2026-04-07 15:31 49.07838 19.61667 37100 ft 391 kts 19°
2026-04-07 15:32 49.12649 19.65560 37098 ft 392 kts 19°
2026-04-07 15:32 49.17474 19.69473 37106 ft 392 kts 19°
2026-04-07 15:33 49.22284 19.73385 37101 ft 392 kts 19°
2026-04-07 15:33 49.27096 19.77302 37118 ft 392 kts 19°
2026-04-07 15:34 49.31758 19.81831 37109 ft 406 kts 32°
2026-04-07 15:34 49.35914 19.87786 37115 ft 410 kts 34°
2026-04-07 15:35 49.40041 19.93846 37115 ft 410 kts 34°
2026-04-07 15:35 49.44172 19.99879 37111 ft 409 kts 33°
2026-04-07 15:36 49.48304 20.05892 37114 ft 408 kts 33°
2026-04-07 15:36 49.52422 20.11888 37112 ft 407 kts 33°
2026-04-07 15:37 49.56527 20.17878 37113 ft 406 kts 33°
2026-04-07 15:37 49.60618 20.23863 37117 ft 404 kts 33°
2026-04-07 15:38 49.64690 20.29833 37100 ft 403 kts 33°
2026-04-07 15:38 49.68734 20.35778 37116 ft 401 kts 33°
2026-04-07 15:39 49.72739 20.41678 37112 ft 400 kts 33°
2026-04-07 15:39 49.76760 20.47617 37114 ft 399 kts 33°
2026-04-07 15:40 49.80763 20.53547 37105 ft 397 kts 33°
2026-04-07 15:40 49.84753 20.59464 36852 ft 400 kts 32°
2026-04-07 15:40 49.86748 20.62434 36566 ft 394 kts 32°
2026-04-07 15:41 49.88710 20.65360 36181 ft 390 kts 32°
2026-04-07 15:41 49.90654 20.68259 35816 ft 386 kts 31°
2026-04-07 15:41 49.92577 20.71129 35443 ft 382 kts 31°
2026-04-07 15:41 49.94496 20.73978 34958 ft 381 kts 30°
2026-04-07 15:42 49.96437 20.76803 34467 ft 381 kts 29°
2026-04-07 15:42 49.98372 20.79606 34016 ft 381 kts 29°
2026-04-07 15:42 50.02209 20.85182 33179 ft 374 kts 28°
2026-04-07 15:43 50.04097 20.87935 32787 ft 371 kts 28°
2026-04-07 15:43 50.05971 20.90673 32412 ft 367 kts 28°
2026-04-07 15:43 50.07820 20.93375 32043 ft 364 kts 28°
2026-04-07 15:43 50.09658 20.96064 31684 ft 360 kts 27°
2026-04-07 15:44 50.11476 20.98728 31329 ft 357 kts 27°
2026-04-07 15:44 50.13278 21.01373 30968 ft 355 kts 27°
2026-04-07 15:44 50.15062 21.04042 30526 ft 356 kts 28°
2026-04-07 15:44 50.16826 21.06732 30171 ft 354 kts 28°
2026-04-07 15:45 50.18575 21.09421 29741 ft 352 kts 28°
2026-04-07 15:45 50.20311 21.12095 29349 ft 348 kts 27°
2026-04-07 15:45 50.22024 21.14735 28981 ft 344 kts 27°
2026-04-07 15:45 50.23714 21.17338 28610 ft 340 kts 27°
2026-04-07 15:46 50.25389 21.19915 28261 ft 336 kts 27°
2026-04-07 15:46 50.27051 21.22473 27899 ft 333 kts 26°
2026-04-07 15:46 50.28673 21.24970 27556 ft 329 kts 26°
2026-04-07 15:46 50.30318 21.27502 27203 ft 326 kts 26°
2026-04-07 15:47 50.31903 21.29945 27122 ft 324 kts 26°
2026-04-07 15:47 50.33503 21.32409 27063 ft 319 kts 26°
2026-04-07 15:47 50.35094 21.34872 26839 ft 313 kts 25°
2026-04-07 15:47 50.36636 21.37261 26378 ft 314 kts 25°
2026-04-07 15:48 50.38212 21.39676 25815 ft 319 kts 25°
2026-04-07 15:48 50.39769 21.42077 25453 ft 317 kts 25°
2026-04-07 15:48 50.41328 21.44498 25162 ft 314 kts 25°
2026-04-07 15:48 50.42868 21.46894 24847 ft 311 kts 25°
2026-04-07 15:49 50.44401 21.49279 24514 ft 309 kts 25°
2026-04-07 15:49 50.45921 21.51643 24191 ft 306 kts 25°
2026-04-07 15:49 50.47429 21.53990 23875 ft 304 kts 25°
2026-04-07 15:49 50.48921 21.56315 23564 ft 301 kts 25°
2026-04-07 15:50 50.50406 21.58628 23168 ft 300 kts 25°
2026-04-07 15:50 50.51886 21.60933 22749 ft 300 kts 26°
2026-04-07 15:50 50.53364 21.63236 22345 ft 299 kts 26°
2026-04-07 15:50 50.54837 21.65538 21951 ft 298 kts 27°
2026-04-07 15:51 50.56307 21.67839 21556 ft 298 kts 28°
2026-04-07 15:51 50.57775 21.70135 21171 ft 297 kts 28°
2026-04-07 15:51 50.59238 21.72429 20778 ft 297 kts 29°
2026-04-07 15:51 50.60701 21.74726 20407 ft 296 kts 30°
2026-04-07 15:52 50.62159 21.77012 20040 ft 296 kts 30°
2026-04-07 15:52 50.63632 21.79298 19602 ft 297 kts 31°
2026-04-07 15:52 50.65101 21.81578 19266 ft 296 kts 32°
2026-04-07 15:52 50.66567 21.83848 18933 ft 294 kts 31°
2026-04-07 15:53 50.68085 21.85960 18608 ft 289 kts 28°
2026-04-07 15:53 50.69630 21.87969 18264 ft 288 kts 28°
2026-04-07 15:53 50.71177 21.89962 17883 ft 287 kts 28°
2026-04-07 15:53 50.72715 21.91957 17526 ft 285 kts 29°
2026-04-07 15:54 50.74242 21.93953 17185 ft 284 kts 29°
2026-04-07 15:54 50.75758 21.95945 16822 ft 283 kts 30°
2026-04-07 15:54 50.77269 21.97938 16462 ft 283 kts 30°
2026-04-07 15:54 50.78775 21.99929 16115 ft 282 kts 30°
2026-04-07 15:55 50.80271 22.01913 15780 ft 280 kts 30°
2026-04-07 15:55 50.81764 22.03893 15441 ft 280 kts 30°
2026-04-07 15:55 50.83251 22.05867 15108 ft 279 kts 31°
2026-04-07 15:55 50.84593 22.08091 14759 ft 292 kts 46°
2026-04-07 15:56 50.85656 22.10843 14470 ft 293 kts 50°
2026-04-07 15:56 50.86681 22.13636 14141 ft 293 kts 51°
2026-04-07 15:56 50.87708 22.16415 13814 ft 292 kts 51°
2026-04-07 15:56 50.88740 22.19172 13482 ft 290 kts 50°
2026-04-07 15:57 50.89770 22.21902 13121 ft 286 kts 50°
2026-04-07 15:57 50.90791 22.24602 12556 ft 286 kts 50°
2026-04-07 15:57 50.91808 22.27307 12005 ft 286 kts 53°
2026-04-07 15:57 50.92557 22.30278 11495 ft 294 kts 66°
2026-04-07 15:58 50.93091 22.33395 11027 ft 293 kts 68°
2026-04-07 15:58 50.93609 22.36504 10565 ft 290 kts 67°
2026-04-07 15:58 50.94142 22.39563 10171 ft 286 kts 66°
2026-04-07 15:58 50.94680 22.42572 9753 ft 282 kts 66°
2026-04-07 15:59 50.95219 22.45549 9313 ft 278 kts 66°
2026-04-07 15:59 50.95749 22.48472 9002 ft 275 kts 66°
2026-04-07 15:59 50.96277 22.51375 8722 ft 274 kts 66°
2026-04-07 15:59 50.96802 22.54267 8440 ft 273 kts 66°
2026-04-07 16:00 50.97325 22.57153 8127 ft 272 kts 66°
2026-04-07 16:00 50.97846 22.60035 7855 ft 271 kts 66°
2026-04-07 16:00 50.98471 22.62809 7571 ft 260 kts 50°
2026-04-07 16:00 50.99197 22.64264 7421 ft 248 kts 36°
2026-04-07 16:01 51.00470 22.66049 7168 ft 243 kts 31°
2026-04-07 16:01 51.01768 22.67761 6892 ft 242 kts 31°
2026-04-07 16:01 51.03060 22.69459 6637 ft 241 kts 31°
2026-04-07 16:01 51.04346 22.71157 6367 ft 240 kts 31°
2026-04-07 16:02 51.05627 22.72857 6102 ft 239 kts 31°
2026-04-07 16:02 51.06880 22.74531 5853 ft 231 kts 32°
2026-04-07 16:02 51.08096 22.76160 5576 ft 227 kts 31°
2026-04-07 16:02 51.09292 22.77762 5349 ft 222 kts 31°
2026-04-07 16:03 51.10451 22.79322 5103 ft 213 kts 31°
2026-04-07 16:03 51.11563 22.80818 4846 ft 207 kts 31°
2026-04-07 16:03 51.12653 22.82281 4587 ft 204 kts 31°
2026-04-07 16:03 51.13742 22.83743 4325 ft 205 kts 31°
2026-04-07 16:04 51.14832 22.85210 4048 ft 205 kts 31°
2026-04-07 16:04 51.15920 22.86676 3801 ft 204 kts 31°
2026-04-07 16:04 51.16994 22.88150 3537 ft 205 kts 36°
2026-04-07 16:04 51.17957 22.89857 3254 ft 202 kts 28°
2026-04-07 16:05 51.19209 22.90344 3058 ft 185 kts 345°
2026-04-07 16:05 51.20445 22.89764 3049 ft 185 kts 342°
2026-04-07 16:05 51.21632 22.89301 2983 ft 166 kts 344°
2026-04-07 16:05 51.22715 22.88926 2976 ft 155 kts 345°
2026-04-07 16:06 51.23760 22.88586 2981 ft 154 kts 345°
2026-04-07 16:06 51.24790 22.88062 2583 ft 154 kts 325°
2026-04-07 16:06 51.25319 22.86644 2344 ft 146 kts 295°
2026-04-07 16:06 51.25645 22.85162 2154 ft 137 kts 297°
2026-04-07 16:07 51.25696 22.83625 1977 ft 147 kts 265°
2026-04-07 16:07 51.25507 22.82073 1801 ft 140 kts 272°
2026-04-07 16:07 51.25331 22.80562 1603 ft 136 kts 268°
2026-04-07 16:07 51.25137 22.79109 1365 ft 135 kts 265°
2026-04-07 16:08 51.24927 22.77655 1225 ft 136 kts 263°
2026-04-07 16:08 51.24708 22.76197 1054 ft 133 kts 261°
2026-04-07 16:08 51.24506 22.74768 902 ft 131 kts 263°
2026-04-07 16:08 51.24304 22.73373 696 ft 128 kts 260°
2026-04-07 16:09 51.24105 22.72023 640 ft 113 kts 264°
2026-04-07 16:09 51.23992 22.71164 648 ft 62 kts 257°
2026-04-07 16:09 51.23946 22.70795 645 ft 17 kts 275°
2026-04-07 16:09 51.23941 22.70738 645 ft 1 kts 211°
2026-04-07 16:10 51.23935 22.70749 646 ft 3 kts 126°
2026-04-07 16:10 51.23937 22.70810 648 ft 9 kts 76°
2026-04-07 16:10 51.23958 22.70944 645 ft 16 kts 77°
2026-04-07 16:10 51.23989 22.71156 648 ft 19 kts 77°
2026-04-07 16:11 51.23954 22.71362 648 ft 10 kts 143°
2026-04-07 16:11 51.23871 22.71405 651 ft 15 kts 167°
2026-04-07 16:11 51.23761 22.71445 652 ft 15 kts 167°
2026-04-07 16:11 51.23678 22.71475 652 ft 11 kts 167°
2026-04-07 16:12 51.23645 22.71487 652 ft 0 kts 167°